sensor_id;sensor_type;location;lat;lon;timestamp;P1;durP1;ratioP1;P2;durP2;ratioP2
7645;SDS011;3864;48.180;14.178;2023-04-16T00:01:59;12.27;;;7.38;;
7645;SDS011;3864;48.180;14.178;2023-04-16T00:04:26;11.43;;;6.95;;
7645;SDS011;3864;48.180;14.178;2023-04-16T00:06:53;11.75;;;6.85;;
7645;SDS011;3864;48.180;14.178;2023-04-16T00:09:20;13.18;;;8.73;;
7645;SDS011;3864;48.180;14.178;2023-04-16T00:11:46;14.23;;;8.23;;
7645;SDS011;3864;48.180;14.178;2023-04-16T00:14:13;14.90;;;9.23;;
7645;SDS011;3864;48.180;14.178;2023-04-16T00:16:40;15.38;;;8.32;;
7645;SDS011;3864;48.180;14.178;2023-04-16T00:21:35;16.42;;;9.73;;
7645;SDS011;3864;48.180;14.178;2023-04-16T00:24:02;16.48;;;8.70;;
7645;SDS011;3864;48.180;14.178;2023-04-16T00:26:29;16.23;;;9.02;;
7645;SDS011;3864;48.180;14.178;2023-04-16T00:28:56;16.65;;;8.88;;
7645;SDS011;3864;48.180;14.178;2023-04-16T00:31:26;17.55;;;10.80;;
7645;SDS011;3864;48.180;14.178;2023-04-16T00:33:53;19.30;;;10.18;;
7645;SDS011;3864;48.180;14.178;2023-04-16T00:36:21;25.10;;;11.80;;
7645;SDS011;3864;48.180;14.178;2023-04-16T00:38:50;19.20;;;11.38;;
7645;SDS011;3864;48.180;14.178;2023-04-16T00:41:17;22.48;;;11.70;;
7645;SDS011;3864;48.180;14.178;2023-04-16T00:43:44;21.40;;;13.40;;
7645;SDS011;3864;48.180;14.178;2023-04-16T00:46:11;20.85;;;12.50;;
7645;SDS011;3864;48.180;14.178;2023-04-16T00:51:05;18.75;;;9.80;;
7645;SDS011;3864;48.180;14.178;2023-04-16T00:53:32;19.25;;;11.07;;
7645;SDS011;3864;48.180;14.178;2023-04-16T00:56:01;20.13;;;11.70;;
7645;SDS011;3864;48.180;14.178;2023-04-16T00:58:28;19.52;;;10.80;;
7645;SDS011;3864;48.180;14.178;2023-04-16T01:03:22;20.27;;;11.15;;
7645;SDS011;3864;48.180;14.178;2023-04-16T01:05:49;19.60;;;10.75;;
7645;SDS011;3864;48.180;14.178;2023-04-16T01:08:17;20.02;;;10.98;;
7645;SDS011;3864;48.180;14.178;2023-04-16T01:10:44;17.73;;;10.45;;
7645;SDS011;3864;48.180;14.178;2023-04-16T01:13:12;19.52;;;10.57;;
7645;SDS011;3864;48.180;14.178;2023-04-16T01:15:39;18.40;;;10.55;;
7645;SDS011;3864;48.180;14.178;2023-04-16T01:20:34;16.83;;;10.32;;
7645;SDS011;3864;48.180;14.178;2023-04-16T01:23:01;16.67;;;9.52;;
7645;SDS011;3864;48.180;14.178;2023-04-16T01:27:55;16.63;;;9.65;;
7645;SDS011;3864;48.180;14.178;2023-04-16T01:30:23;17.13;;;9.38;;
7645;SDS011;3864;48.180;14.178;2023-04-16T01:35:17;17.95;;;9.57;;
7645;SDS011;3864;48.180;14.178;2023-04-16T01:37:45;14.50;;;9.27;;
7645;SDS011;3864;48.180;14.178;2023-04-16T01:40:11;18.75;;;9.15;;
7645;SDS011;3864;48.180;14.178;2023-04-16T01:45:05;17.38;;;9.85;;
7645;SDS011;3864;48.180;14.178;2023-04-16T01:47:32;16.85;;;9.55;;
7645;SDS011;3864;48.180;14.178;2023-04-16T01:50:00;17.83;;;10.30;;
7645;SDS011;3864;48.180;14.178;2023-04-16T01:52:27;16.17;;;9.20;;
7645;SDS011;3864;48.180;14.178;2023-04-16T01:54:55;19.05;;;10.48;;
7645;SDS011;3864;48.180;14.178;2023-04-16T01:57:22;14.40;;;8.88;;
7645;SDS011;3864;48.180;14.178;2023-04-16T01:59:48;15.00;;;9.00;;
7645;SDS011;3864;48.180;14.178;2023-04-16T02:04:43;13.45;;;7.97;;
7645;SDS011;3864;48.180;14.178;2023-04-16T02:07:09;15.85;;;8.60;;
7645;SDS011;3864;48.180;14.178;2023-04-16T02:09:36;12.52;;;7.70;;
7645;SDS011;3864;48.180;14.178;2023-04-16T02:12:05;13.82;;;8.35;;
7645;SDS011;3864;48.180;14.178;2023-04-16T02:14:35;12.77;;;7.65;;
7645;SDS011;3864;48.180;14.178;2023-04-16T02:19:29;12.55;;;7.65;;
7645;SDS011;3864;48.180;14.178;2023-04-16T02:24:22;11.10;;;7.72;;
7645;SDS011;3864;48.180;14.178;2023-04-16T02:26:50;15.00;;;8.40;;
7645;SDS011;3864;48.180;14.178;2023-04-16T02:29:19;11.82;;;7.40;;
7645;SDS011;3864;48.180;14.178;2023-04-16T02:31:46;11.43;;;7.22;;
7645;SDS011;3864;48.180;14.178;2023-04-16T02:34:13;11.68;;;7.03;;
7645;SDS011;3864;48.180;14.178;2023-04-16T02:39:07;11.98;;;7.78;;
7645;SDS011;3864;48.180;14.178;2023-04-16T02:41:34;9.18;;;6.57;;
7645;SDS011;3864;48.180;14.178;2023-04-16T02:44:00;11.05;;;6.03;;
7645;SDS011;3864;48.180;14.178;2023-04-16T02:46:29;11.65;;;6.80;;
7645;SDS011;3864;48.180;14.178;2023-04-16T02:48:56;11.98;;;6.97;;
7645;SDS011;3864;48.180;14.178;2023-04-16T02:51:22;10.15;;;6.50;;
7645;SDS011;3864;48.180;14.178;2023-04-16T02:53:49;10.68;;;6.63;;
7645;SDS011;3864;48.180;14.178;2023-04-16T02:56:16;10.57;;;7.00;;
7645;SDS011;3864;48.180;14.178;2023-04-16T02:58:43;9.25;;;5.90;;
7645;SDS011;3864;48.180;14.178;2023-04-16T03:03:38;9.95;;;5.95;;
7645;SDS011;3864;48.180;14.178;2023-04-16T03:06:05;9.57;;;6.53;;
7645;SDS011;3864;48.180;14.178;2023-04-16T03:10:58;11.23;;;6.57;;
7645;SDS011;3864;48.180;14.178;2023-04-16T03:13:26;14.18;;;7.22;;
7645;SDS011;3864;48.180;14.178;2023-04-16T03:18:19;11.07;;;6.65;;
7645;SDS011;3864;48.180;14.178;2023-04-16T03:20:51;11.73;;;6.60;;
7645;SDS011;3864;48.180;14.178;2023-04-16T03:23:18;12.50;;;7.15;;
7645;SDS011;3864;48.180;14.178;2023-04-16T03:25:45;13.02;;;8.45;;
7645;SDS011;3864;48.180;14.178;2023-04-16T03:28:12;13.75;;;8.20;;
7645;SDS011;3864;48.180;14.178;2023-04-16T03:30:39;11.35;;;7.18;;
7645;SDS011;3864;48.180;14.178;2023-04-16T03:33:05;13.95;;;8.40;;
7645;SDS011;3864;48.180;14.178;2023-04-16T03:35:32;11.88;;;8.10;;
7645;SDS011;3864;48.180;14.178;2023-04-16T03:40:27;12.63;;;7.30;;
7645;SDS011;3864;48.180;14.178;2023-04-16T03:42:55;11.88;;;7.65;;
7645;SDS011;3864;48.180;14.178;2023-04-16T03:45:21;13.93;;;8.40;;
7645;SDS011;3864;48.180;14.178;2023-04-16T03:47:48;13.23;;;7.78;;
7645;SDS011;3864;48.180;14.178;2023-04-16T03:50:17;12.00;;;7.95;;
7645;SDS011;3864;48.180;14.178;2023-04-16T03:52:44;13.45;;;8.48;;
7645;SDS011;3864;48.180;14.178;2023-04-16T03:55:13;10.20;;;6.72;;
7645;SDS011;3864;48.180;14.178;2023-04-16T03:57:42;10.88;;;6.75;;
7645;SDS011;3864;48.180;14.178;2023-04-16T04:00:09;12.10;;;7.28;;
7645;SDS011;3864;48.180;14.178;2023-04-16T04:02:36;11.63;;;7.18;;
7645;SDS011;3864;48.180;14.178;2023-04-16T04:05:03;10.63;;;6.95;;
7645;SDS011;3864;48.180;14.178;2023-04-16T04:07:30;11.95;;;6.55;;
7645;SDS011;3864;48.180;14.178;2023-04-16T04:12:23;10.40;;;6.30;;
7645;SDS011;3864;48.180;14.178;2023-04-16T04:14:52;10.48;;;6.60;;
7645;SDS011;3864;48.180;14.178;2023-04-16T04:17:20;11.18;;;6.97;;
7645;SDS011;3864;48.180;14.178;2023-04-16T04:19:47;11.15;;;5.95;;
7645;SDS011;3864;48.180;14.178;2023-04-16T04:24:41;9.73;;;6.70;;
7645;SDS011;3864;48.180;14.178;2023-04-16T04:27:08;12.25;;;7.07;;
7645;SDS011;3864;48.180;14.178;2023-04-16T04:32:03;10.25;;;6.43;;
7645;SDS011;3864;48.180;14.178;2023-04-16T04:34:30;11.48;;;6.55;;
7645;SDS011;3864;48.180;14.178;2023-04-16T04:36:57;12.00;;;6.75;;
7645;SDS011;3864;48.180;14.178;2023-04-16T04:39:24;10.85;;;6.65;;
7645;SDS011;3864;48.180;14.178;2023-04-16T04:41:51;12.60;;;6.80;;
7645;SDS011;3864;48.180;14.178;2023-04-16T04:46:45;11.52;;;6.40;;
7645;SDS011;3864;48.180;14.178;2023-04-16T04:49:13;10.68;;;6.43;;
7645;SDS011;3864;48.180;14.178;2023-04-16T04:51:40;11.43;;;6.57;;
7645;SDS011;3864;48.180;14.178;2023-04-16T04:56:34;10.07;;;6.20;;
7645;SDS011;3864;48.180;14.178;2023-04-16T04:59:02;10.32;;;6.47;;
7645;SDS011;3864;48.180;14.178;2023-04-16T05:01:29;11.63;;;7.20;;
7645;SDS011;3864;48.180;14.178;2023-04-16T05:06:23;11.35;;;6.28;;
7645;SDS011;3864;48.180;14.178;2023-04-16T05:08:51;10.27;;;6.43;;
7645;SDS011;3864;48.180;14.178;2023-04-16T05:11:18;9.38;;;5.85;;
7645;SDS011;3864;48.180;14.178;2023-04-16T05:13:45;9.40;;;5.80;;
7645;SDS011;3864;48.180;14.178;2023-04-16T05:16:12;9.45;;;5.63;;
7645;SDS011;3864;48.180;14.178;2023-04-16T05:18:39;7.97;;;5.05;;
7645;SDS011;3864;48.180;14.178;2023-04-16T05:23:34;9.05;;;5.13;;
7645;SDS011;3864;48.180;14.178;2023-04-16T05:26:01;7.78;;;4.93;;
7645;SDS011;3864;48.180;14.178;2023-04-16T05:28:28;6.82;;;4.70;;
7645;SDS011;3864;48.180;14.178;2023-04-16T05:30:55;9.27;;;4.22;;
7645;SDS011;3864;48.180;14.178;2023-04-16T05:35:49;6.38;;;4.43;;
7645;SDS011;3864;48.180;14.178;2023-04-16T05:40:44;7.22;;;4.40;;
7645;SDS011;3864;48.180;14.178;2023-04-16T05:43:11;5.65;;;3.83;;
7645;SDS011;3864;48.180;14.178;2023-04-16T05:45:38;5.47;;;3.83;;
7645;SDS011;3864;48.180;14.178;2023-04-16T05:48:06;6.38;;;3.20;;
7645;SDS011;3864;48.180;14.178;2023-04-16T05:50:33;4.60;;;3.15;;
7645;SDS011;3864;48.180;14.178;2023-04-16T05:53:00;4.35;;;3.17;;
7645;SDS011;3864;48.180;14.178;2023-04-16T05:55:27;4.75;;;2.92;;
7645;SDS011;3864;48.180;14.178;2023-04-16T05:57:56;4.50;;;2.92;;
7645;SDS011;3864;48.180;14.178;2023-04-16T06:00:23;5.28;;;2.85;;
7645;SDS011;3864;48.180;14.178;2023-04-16T06:02:52;4.53;;;3.17;;
7645;SDS011;3864;48.180;14.178;2023-04-16T06:05:19;4.10;;;2.50;;
7645;SDS011;3864;48.180;14.178;2023-04-16T06:07:46;4.45;;;2.80;;
7645;SDS011;3864;48.180;14.178;2023-04-16T06:10:12;4.57;;;2.53;;
7645;SDS011;3864;48.180;14.178;2023-04-16T06:12:40;3.92;;;2.53;;
7645;SDS011;3864;48.180;14.178;2023-04-16T06:15:10;3.95;;;2.78;;
7645;SDS011;3864;48.180;14.178;2023-04-16T06:17:38;3.67;;;2.40;;
7645;SDS011;3864;48.180;14.178;2023-04-16T06:20:06;3.50;;;2.30;;
7645;SDS011;3864;48.180;14.178;2023-04-16T06:22:33;3.42;;;2.45;;
7645;SDS011;3864;48.180;14.178;2023-04-16T06:25:00;4.45;;;2.35;;
7645;SDS011;3864;48.180;14.178;2023-04-16T06:27:28;3.33;;;2.33;;
7645;SDS011;3864;48.180;14.178;2023-04-16T06:29:55;3.05;;;2.15;;
7645;SDS011;3864;48.180;14.178;2023-04-16T06:32:24;3.10;;;2.10;;
7645;SDS011;3864;48.180;14.178;2023-04-16T06:34:51;3.17;;;2.20;;
7645;SDS011;3864;48.180;14.178;2023-04-16T06:39:45;4.05;;;2.80;;
7645;SDS011;3864;48.180;14.178;2023-04-16T06:42:11;2.78;;;2.13;;
7645;SDS011;3864;48.180;14.178;2023-04-16T06:44:38;3.00;;;2.17;;
7645;SDS011;3864;48.180;14.178;2023-04-16T06:47:05;5.85;;;2.40;;
7645;SDS011;3864;48.180;14.178;2023-04-16T06:49:35;3.75;;;2.30;;
7645;SDS011;3864;48.180;14.178;2023-04-16T06:52:04;4.05;;;2.60;;
7645;SDS011;3864;48.180;14.178;2023-04-16T06:54:31;3.65;;;2.33;;
7645;SDS011;3864;48.180;14.178;2023-04-16T06:56:58;3.50;;;2.60;;
7645;SDS011;3864;48.180;14.178;2023-04-16T06:59:26;3.63;;;2.78;;
7645;SDS011;3864;48.180;14.178;2023-04-16T07:01:53;4.22;;;3.25;;
7645;SDS011;3864;48.180;14.178;2023-04-16T07:04:20;4.15;;;3.03;;
7645;SDS011;3864;48.180;14.178;2023-04-16T07:06:49;4.88;;;3.25;;
7645;SDS011;3864;48.180;14.178;2023-04-16T07:09:16;4.80;;;3.17;;
7645;SDS011;3864;48.180;14.178;2023-04-16T07:11:44;5.35;;;3.47;;
7645;SDS011;3864;48.180;14.178;2023-04-16T07:14:11;6.10;;;3.60;;
7645;SDS011;3864;48.180;14.178;2023-04-16T07:16:38;4.50;;;3.33;;
7645;SDS011;3864;48.180;14.178;2023-04-16T07:19:06;6.20;;;3.60;;
7645;SDS011;3864;48.180;14.178;2023-04-16T07:21:33;4.00;;;2.90;;
7645;SDS011;3864;48.180;14.178;2023-04-16T07:24:02;4.72;;;3.00;;
7645;SDS011;3864;48.180;14.178;2023-04-16T07:26:29;5.03;;;3.53;;
7645;SDS011;3864;48.180;14.178;2023-04-16T07:28:56;4.30;;;2.90;;
7645;SDS011;3864;48.180;14.178;2023-04-16T07:31:23;6.07;;;3.85;;
7645;SDS011;3864;48.180;14.178;2023-04-16T07:33:50;4.82;;;3.20;;
7645;SDS011;3864;48.180;14.178;2023-04-16T07:36:17;5.03;;;3.10;;
7645;SDS011;3864;48.180;14.178;2023-04-16T07:38:44;5.20;;;3.08;;
7645;SDS011;3864;48.180;14.178;2023-04-16T07:41:13;4.65;;;3.30;;
7645;SDS011;3864;48.180;14.178;2023-04-16T07:43:40;15.02;;;8.23;;
7645;SDS011;3864;48.180;14.178;2023-04-16T07:46:07;5.95;;;3.80;;
7645;SDS011;3864;48.180;14.178;2023-04-16T07:48:34;5.03;;;3.60;;
7645;SDS011;3864;48.180;14.178;2023-04-16T07:51:01;4.30;;;3.05;;
7645;SDS011;3864;48.180;14.178;2023-04-16T07:53:28;5.35;;;3.75;;
7645;SDS011;3864;48.180;14.178;2023-04-16T07:58:23;5.10;;;3.50;;
7645;SDS011;3864;48.180;14.178;2023-04-16T08:00:50;3.78;;;3.00;;
7645;SDS011;3864;48.180;14.178;2023-04-16T08:03:17;5.93;;;4.03;;
7645;SDS011;3864;48.180;14.178;2023-04-16T08:05:44;4.75;;;3.58;;
7645;SDS011;3864;48.180;14.178;2023-04-16T08:08:11;6.63;;;4.55;;
7645;SDS011;3864;48.180;14.178;2023-04-16T08:13:05;4.63;;;3.67;;
7645;SDS011;3864;48.180;14.178;2023-04-16T08:15:33;4.38;;;3.42;;
7645;SDS011;3864;48.180;14.178;2023-04-16T08:18:00;5.45;;;4.13;;
7645;SDS011;3864;48.180;14.178;2023-04-16T08:20:29;5.68;;;4.38;;
7645;SDS011;3864;48.180;14.178;2023-04-16T08:22:57;5.20;;;3.63;;
7645;SDS011;3864;48.180;14.178;2023-04-16T08:25:24;4.45;;;3.33;;
7645;SDS011;3864;48.180;14.178;2023-04-16T08:27:51;4.57;;;3.35;;
7645;SDS011;3864;48.180;14.178;2023-04-16T08:30:19;5.10;;;3.47;;
7645;SDS011;3864;48.180;14.178;2023-04-16T08:32:47;3.90;;;2.95;;
7645;SDS011;3864;48.180;14.178;2023-04-16T08:35:15;4.70;;;3.38;;
7645;SDS011;3864;48.180;14.178;2023-04-16T08:37:42;4.10;;;3.20;;
7645;SDS011;3864;48.180;14.178;2023-04-16T08:40:09;4.47;;;3.20;;
7645;SDS011;3864;48.180;14.178;2023-04-16T08:42:38;5.53;;;3.50;;
7645;SDS011;3864;48.180;14.178;2023-04-16T08:45:07;4.97;;;3.35;;
7645;SDS011;3864;48.180;14.178;2023-04-16T08:47:34;4.70;;;3.30;;
7645;SDS011;3864;48.180;14.178;2023-04-16T08:50:04;5.07;;;3.50;;
7645;SDS011;3864;48.180;14.178;2023-04-16T08:52:32;4.63;;;3.38;;
7645;SDS011;3864;48.180;14.178;2023-04-16T08:55:02;5.60;;;4.38;;
7645;SDS011;3864;48.180;14.178;2023-04-16T08:57:29;6.53;;;5.03;;
7645;SDS011;3864;48.180;14.178;2023-04-16T08:59:59;5.38;;;4.53;;
7645;SDS011;3864;48.180;14.178;2023-04-16T09:02:28;4.68;;;3.25;;
7645;SDS011;3864;48.180;14.178;2023-04-16T09:04:55;6.00;;;4.13;;
7645;SDS011;3864;48.180;14.178;2023-04-16T09:07:26;6.03;;;4.68;;
7645;SDS011;3864;48.180;14.178;2023-04-16T09:09:54;6.07;;;4.93;;
7645;SDS011;3864;48.180;14.178;2023-04-16T09:12:23;5.50;;;4.25;;
7645;SDS011;3864;48.180;14.178;2023-04-16T09:14:50;6.53;;;4.07;;
7645;SDS011;3864;48.180;14.178;2023-04-16T09:17:17;6.25;;;5.15;;
7645;SDS011;3864;48.180;14.178;2023-04-16T09:19:44;4.90;;;3.80;;
7645;SDS011;3864;48.180;14.178;2023-04-16T09:22:12;3.88;;;3.10;;
7645;SDS011;3864;48.180;14.178;2023-04-16T09:24:43;5.10;;;4.18;;
7645;SDS011;3864;48.180;14.178;2023-04-16T09:27:11;5.97;;;4.80;;
7645;SDS011;3864;48.180;14.178;2023-04-16T09:29:38;5.03;;;4.30;;
7645;SDS011;3864;48.180;14.178;2023-04-16T09:32:06;6.32;;;5.00;;
7645;SDS011;3864;48.180;14.178;2023-04-16T09:34:34;4.60;;;3.95;;
7645;SDS011;3864;48.180;14.178;2023-04-16T09:37:13;6.15;;;4.72;;
7645;SDS011;3864;48.180;14.178;2023-04-16T09:39:40;4.72;;;4.03;;
7645;SDS011;3864;48.180;14.178;2023-04-16T09:42:10;5.93;;;4.40;;
7645;SDS011;3864;48.180;14.178;2023-04-16T09:44:37;5.28;;;4.10;;
7645;SDS011;3864;48.180;14.178;2023-04-16T09:47:04;5.57;;;4.70;;
7645;SDS011;3864;48.180;14.178;2023-04-16T09:49:32;5.05;;;3.67;;
7645;SDS011;3864;48.180;14.178;2023-04-16T09:51:59;4.53;;;4.07;;
7645;SDS011;3864;48.180;14.178;2023-04-16T09:54:27;4.88;;;4.10;;
7645;SDS011;3864;48.180;14.178;2023-04-16T09:56:55;4.53;;;4.07;;
7645;SDS011;3864;48.180;14.178;2023-04-16T09:59:24;5.65;;;3.60;;
7645;SDS011;3864;48.180;14.178;2023-04-16T10:01:59;4.45;;;3.55;;
7645;SDS011;3864;48.180;14.178;2023-04-16T10:04:26;5.28;;;3.83;;
7645;SDS011;3864;48.180;14.178;2023-04-16T10:07:01;4.68;;;3.78;;
7645;SDS011;3864;48.180;14.178;2023-04-16T10:09:30;4.57;;;3.72;;
7645;SDS011;3864;48.180;14.178;2023-04-16T10:11:57;5.78;;;3.78;;
7645;SDS011;3864;48.180;14.178;2023-04-16T10:14:26;5.40;;;4.32;;
7645;SDS011;3864;48.180;14.178;2023-04-16T10:16:54;4.53;;;3.95;;
7645;SDS011;3864;48.180;14.178;2023-04-16T10:19:21;6.18;;;4.00;;
7645;SDS011;3864;48.180;14.178;2023-04-16T10:21:49;5.43;;;4.25;;
7645;SDS011;3864;48.180;14.178;2023-04-16T10:24:16;4.93;;;4.03;;
7645;SDS011;3864;48.180;14.178;2023-04-16T10:26:43;6.15;;;4.15;;
7645;SDS011;3864;48.180;14.178;2023-04-16T10:29:11;5.72;;;3.45;;
7645;SDS011;3864;48.180;14.178;2023-04-16T10:31:40;5.07;;;4.10;;
7645;SDS011;3864;48.180;14.178;2023-04-16T10:34:07;4.60;;;3.42;;
7645;SDS011;3864;48.180;14.178;2023-04-16T10:36:35;4.22;;;3.83;;
7645;SDS011;3864;48.180;14.178;2023-04-16T10:39:02;5.53;;;3.47;;
7645;SDS011;3864;48.180;14.178;2023-04-16T10:41:31;4.57;;;3.28;;
7645;SDS011;3864;48.180;14.178;2023-04-16T10:44:02;4.13;;;3.30;;
7645;SDS011;3864;48.180;14.178;2023-04-16T10:46:31;4.60;;;3.33;;
7645;SDS011;3864;48.180;14.178;2023-04-16T10:49:00;4.10;;;3.20;;
7645;SDS011;3864;48.180;14.178;2023-04-16T10:51:41;4.25;;;3.00;;
7645;SDS011;3864;48.180;14.178;2023-04-16T10:54:18;4.45;;;3.40;;
7645;SDS011;3864;48.180;14.178;2023-04-16T10:56:45;3.83;;;3.28;;
7645;SDS011;3864;48.180;14.178;2023-04-16T10:59:16;3.60;;;2.95;;
7645;SDS011;3864;48.180;14.178;2023-04-16T11:01:43;3.65;;;2.75;;
7645;SDS011;3864;48.180;14.178;2023-04-16T11:04:34;3.50;;;2.60;;
7645;SDS011;3864;48.180;14.178;2023-04-16T11:07:02;3.85;;;2.70;;
7645;SDS011;3864;48.180;14.178;2023-04-16T11:09:45;4.25;;;2.88;;
7645;SDS011;3864;48.180;14.178;2023-04-16T11:12:14;4.28;;;3.35;;
7645;SDS011;3864;48.180;14.178;2023-04-16T11:14:46;4.65;;;2.97;;
7645;SDS011;3864;48.180;14.178;2023-04-16T11:17:13;27.35;;;13.77;;
7645;SDS011;3864;48.180;14.178;2023-04-16T11:19:43;6.15;;;4.60;;
7645;SDS011;3864;48.180;14.178;2023-04-16T11:22:11;5.38;;;4.00;;
7645;SDS011;3864;48.180;14.178;2023-04-16T11:24:38;9.55;;;6.55;;
7645;SDS011;3864;48.180;14.178;2023-04-16T11:27:05;6.75;;;5.32;;
7645;SDS011;3864;48.180;14.178;2023-04-16T11:29:32;4.60;;;3.22;;
7645;SDS011;3864;48.180;14.178;2023-04-16T11:32:00;4.30;;;3.20;;
7645;SDS011;3864;48.180;14.178;2023-04-16T11:34:27;7.47;;;4.60;;
7645;SDS011;3864;48.180;14.178;2023-04-16T11:36:58;6.05;;;4.43;;
7645;SDS011;3864;48.180;14.178;2023-04-16T11:39:25;6.43;;;4.47;;
7645;SDS011;3864;48.180;14.178;2023-04-16T11:41:52;10.70;;;6.75;;
7645;SDS011;3864;48.180;14.178;2023-04-16T11:44:20;6.55;;;4.25;;
7645;SDS011;3864;48.180;14.178;2023-04-16T11:46:47;4.88;;;3.10;;
7645;SDS011;3864;48.180;14.178;2023-04-16T11:49:14;5.53;;;4.07;;
7645;SDS011;3864;48.180;14.178;2023-04-16T11:51:43;5.55;;;3.95;;
7645;SDS011;3864;48.180;14.178;2023-04-16T11:54:20;5.90;;;4.22;;
7645;SDS011;3864;48.180;14.178;2023-04-16T11:56:48;6.60;;;4.28;;
7645;SDS011;3864;48.180;14.178;2023-04-16T11:59:16;6.22;;;4.45;;
7645;SDS011;3864;48.180;14.178;2023-04-16T12:01:44;8.77;;;5.70;;
7645;SDS011;3864;48.180;14.178;2023-04-16T12:04:12;6.20;;;4.72;;
7645;SDS011;3864;48.180;14.178;2023-04-16T12:06:39;7.43;;;4.93;;
7645;SDS011;3864;48.180;14.178;2023-04-16T12:09:23;4.88;;;3.70;;
7645;SDS011;3864;48.180;14.178;2023-04-16T12:11:51;5.93;;;4.28;;
7645;SDS011;3864;48.180;14.178;2023-04-16T12:14:18;10.95;;;6.40;;
7645;SDS011;3864;48.180;14.178;2023-04-16T12:16:45;4.75;;;3.50;;
7645;SDS011;3864;48.180;14.178;2023-04-16T12:19:12;4.68;;;3.30;;
7645;SDS011;3864;48.180;14.178;2023-04-16T12:21:39;4.65;;;3.67;;
7645;SDS011;3864;48.180;14.178;2023-04-16T12:24:07;10.73;;;5.95;;
7645;SDS011;3864;48.180;14.178;2023-04-16T12:26:37;5.68;;;3.92;;
7645;SDS011;3864;48.180;14.178;2023-04-16T12:29:17;5.13;;;3.83;;
7645;SDS011;3864;48.180;14.178;2023-04-16T12:31:44;4.60;;;3.15;;
7645;SDS011;3864;48.180;14.178;2023-04-16T12:34:11;4.43;;;3.47;;
7645;SDS011;3864;48.180;14.178;2023-04-16T12:36:39;3.80;;;3.10;;
7645;SDS011;3864;48.180;14.178;2023-04-16T12:39:06;4.20;;;3.33;;
7645;SDS011;3864;48.180;14.178;2023-04-16T12:41:37;4.03;;;3.55;;
7645;SDS011;3864;48.180;14.178;2023-04-16T12:44:05;4.97;;;3.33;;
7645;SDS011;3864;48.180;14.178;2023-04-16T12:46:33;3.78;;;2.78;;
7645;SDS011;3864;48.180;14.178;2023-04-16T12:49:00;3.72;;;2.83;;
7645;SDS011;3864;48.180;14.178;2023-04-16T12:51:27;4.72;;;3.17;;
7645;SDS011;3864;48.180;14.178;2023-04-16T12:53:55;3.92;;;2.80;;
7645;SDS011;3864;48.180;14.178;2023-04-16T12:56:22;5.22;;;3.20;;
7645;SDS011;3864;48.180;14.178;2023-04-16T12:58:57;3.78;;;2.88;;
7645;SDS011;3864;48.180;14.178;2023-04-16T13:01:24;4.18;;;2.55;;
7645;SDS011;3864;48.180;14.178;2023-04-16T13:03:51;4.47;;;3.30;;
7645;SDS011;3864;48.180;14.178;2023-04-16T13:06:18;4.25;;;3.00;;
7645;SDS011;3864;48.180;14.178;2023-04-16T13:08:45;4.45;;;2.97;;
7645;SDS011;3864;48.180;14.178;2023-04-16T13:11:13;4.18;;;3.10;;
7645;SDS011;3864;48.180;14.178;2023-04-16T13:13:41;4.30;;;3.42;;
7645;SDS011;3864;48.180;14.178;2023-04-16T13:16:12;5.07;;;3.28;;
7645;SDS011;3864;48.180;14.178;2023-04-16T13:18:40;4.15;;;3.20;;
7645;SDS011;3864;48.180;14.178;2023-04-16T13:21:07;3.53;;;2.83;;
7645;SDS011;3864;48.180;14.178;2023-04-16T13:23:34;4.70;;;3.40;;
7645;SDS011;3864;48.180;14.178;2023-04-16T13:26:01;3.80;;;3.17;;
7645;SDS011;3864;48.180;14.178;2023-04-16T13:28:28;3.75;;;2.95;;
7645;SDS011;3864;48.180;14.178;2023-04-16T13:30:56;5.22;;;3.78;;
7645;SDS011;3864;48.180;14.178;2023-04-16T13:33:24;4.13;;;3.35;;
7645;SDS011;3864;48.180;14.178;2023-04-16T13:35:52;4.68;;;3.40;;
7645;SDS011;3864;48.180;14.178;2023-04-16T13:38:19;4.45;;;3.60;;
7645;SDS011;3864;48.180;14.178;2023-04-16T13:43:12;5.18;;;3.22;;
7645;SDS011;3864;48.180;14.178;2023-04-16T13:45:42;4.50;;;3.75;;
7645;SDS011;3864;48.180;14.178;2023-04-16T13:48:10;4.50;;;3.60;;
7645;SDS011;3864;48.180;14.178;2023-04-16T13:50:38;5.20;;;3.70;;
7645;SDS011;3864;48.180;14.178;2023-04-16T13:53:05;4.68;;;3.30;;
7645;SDS011;3864;48.180;14.178;2023-04-16T13:55:32;4.55;;;3.80;;
7645;SDS011;3864;48.180;14.178;2023-04-16T13:57:59;4.85;;;3.67;;
7645;SDS011;3864;48.180;14.178;2023-04-16T14:00:26;4.63;;;4.00;;
7645;SDS011;3864;48.180;14.178;2023-04-16T14:02:53;4.82;;;4.28;;
7645;SDS011;3864;48.180;14.178;2023-04-16T14:05:20;4.65;;;3.60;;
7645;SDS011;3864;48.180;14.178;2023-04-16T14:07:49;5.00;;;3.78;;
7645;SDS011;3864;48.180;14.178;2023-04-16T14:10:16;3.85;;;2.92;;
7645;SDS011;3864;48.180;14.178;2023-04-16T14:12:43;4.75;;;3.63;;
7645;SDS011;3864;48.180;14.178;2023-04-16T14:15:10;4.47;;;3.92;;
7645;SDS011;3864;48.180;14.178;2023-04-16T14:17:50;4.28;;;3.45;;
7645;SDS011;3864;48.180;14.178;2023-04-16T14:20:17;4.60;;;3.72;;
7645;SDS011;3864;48.180;14.178;2023-04-16T14:22:44;4.60;;;3.70;;
7645;SDS011;3864;48.180;14.178;2023-04-16T14:27:39;4.13;;;3.60;;
7645;SDS011;3864;48.180;14.178;2023-04-16T14:30:07;5.72;;;3.88;;
7645;SDS011;3864;48.180;14.178;2023-04-16T14:32:34;6.05;;;3.78;;
7645;SDS011;3864;48.180;14.178;2023-04-16T14:35:01;4.88;;;3.58;;
7645;SDS011;3864;48.180;14.178;2023-04-16T14:37:29;3.70;;;3.13;;
7645;SDS011;3864;48.180;14.178;2023-04-16T14:39:56;4.05;;;3.22;;
7645;SDS011;3864;48.180;14.178;2023-04-16T14:42:23;3.88;;;3.10;;
7645;SDS011;3864;48.180;14.178;2023-04-16T14:44:51;4.20;;;3.15;;
7645;SDS011;3864;48.180;14.178;2023-04-16T14:47:19;4.68;;;3.53;;
7645;SDS011;3864;48.180;14.178;2023-04-16T14:49:46;4.05;;;3.42;;
7645;SDS011;3864;48.180;14.178;2023-04-16T14:52:13;5.35;;;3.10;;
7645;SDS011;3864;48.180;14.178;2023-04-16T14:54:40;6.55;;;3.85;;
7645;SDS011;3864;48.180;14.178;2023-04-16T14:57:07;5.35;;;3.38;;
7645;SDS011;3864;48.180;14.178;2023-04-16T14:59:34;4.72;;;3.70;;
7645;SDS011;3864;48.180;14.178;2023-04-16T15:02:02;4.63;;;3.83;;
7645;SDS011;3864;48.180;14.178;2023-04-16T15:04:29;4.30;;;3.53;;
7645;SDS011;3864;48.180;14.178;2023-04-16T15:06:56;4.78;;;3.78;;
7645;SDS011;3864;48.180;14.178;2023-04-16T15:09:24;5.85;;;4.20;;
7645;SDS011;3864;48.180;14.178;2023-04-16T15:11:51;5.20;;;3.75;;
7645;SDS011;3864;48.180;14.178;2023-04-16T15:14:17;4.82;;;3.50;;
7645;SDS011;3864;48.180;14.178;2023-04-16T15:16:45;4.68;;;3.40;;
7645;SDS011;3864;48.180;14.178;2023-04-16T15:19:13;5.15;;;3.63;;
7645;SDS011;3864;48.180;14.178;2023-04-16T15:21:40;5.70;;;4.15;;
7645;SDS011;3864;48.180;14.178;2023-04-16T15:24:07;4.70;;;3.22;;
7645;SDS011;3864;48.180;14.178;2023-04-16T15:26:34;4.47;;;3.28;;
7645;SDS011;3864;48.180;14.178;2023-04-16T15:29:01;4.90;;;3.47;;
7645;SDS011;3864;48.180;14.178;2023-04-16T15:31:28;4.72;;;3.60;;
7645;SDS011;3864;48.180;14.178;2023-04-16T15:33:55;5.25;;;3.60;;
7645;SDS011;3864;48.180;14.178;2023-04-16T15:36:25;4.88;;;3.60;;
7645;SDS011;3864;48.180;14.178;2023-04-16T15:38:52;4.60;;;3.53;;
7645;SDS011;3864;48.180;14.178;2023-04-16T15:41:19;4.82;;;3.30;;
7645;SDS011;3864;48.180;14.178;2023-04-16T15:43:46;5.35;;;3.60;;
7645;SDS011;3864;48.180;14.178;2023-04-16T15:46:13;4.90;;;3.70;;
7645;SDS011;3864;48.180;14.178;2023-04-16T15:48:40;5.22;;;4.15;;
7645;SDS011;3864;48.180;14.178;2023-04-16T15:51:07;4.78;;;3.78;;
7645;SDS011;3864;48.180;14.178;2023-04-16T15:53:35;4.25;;;3.38;;
7645;SDS011;3864;48.180;14.178;2023-04-16T15:56:02;4.60;;;3.30;;
7645;SDS011;3864;48.180;14.178;2023-04-16T15:58:29;4.53;;;3.50;;
7645;SDS011;3864;48.180;14.178;2023-04-16T16:00:57;4.63;;;3.45;;
7645;SDS011;3864;48.180;14.178;2023-04-16T16:03:24;4.32;;;3.08;;
7645;SDS011;3864;48.180;14.178;2023-04-16T16:05:51;4.90;;;3.38;;
7645;SDS011;3864;48.180;14.178;2023-04-16T16:08:18;4.60;;;3.17;;
7645;SDS011;3864;48.180;14.178;2023-04-16T16:10:47;4.55;;;3.17;;
7645;SDS011;3864;48.180;14.178;2023-04-16T16:13:15;4.25;;;3.30;;